createdAt,value
2018-03-18T00:02:09.307Z,4.80
2018-03-18T00:04:36.754Z,4.90
2018-03-18T00:07:04.217Z,4.47
2018-03-18T00:09:31.666Z,4.20
2018-03-18T00:11:59.131Z,4.77
2018-03-18T00:14:26.585Z,5.10
2018-03-18T00:16:54.051Z,4.27
2018-03-18T00:19:21.510Z,4.63
2018-03-18T00:21:48.966Z,4.83
2018-03-18T00:24:16.423Z,4.50
2018-03-18T00:26:43.877Z,4.63
2018-03-18T00:29:11.320Z,4.80
2018-03-18T00:31:38.780Z,4.57
2018-03-18T00:34:06.248Z,4.33
2018-03-18T00:36:33.709Z,4.70
2018-03-18T00:39:01.916Z,4.10
2018-03-18T00:41:29.374Z,4.10
2018-03-18T00:43:56.819Z,4.83
2018-03-18T00:46:24.277Z,5.10
2018-03-18T00:48:51.717Z,4.30
2018-03-18T00:51:30.966Z,4.50
2018-03-18T00:53:59.185Z,4.67
2018-03-18T00:56:26.642Z,4.67
2018-03-18T00:58:54.099Z,4.67
2018-03-18T01:01:21.558Z,4.07
2018-03-18T01:03:49.017Z,4.70
2018-03-18T01:06:16.481Z,3.93
2018-03-18T01:08:43.928Z,4.50
2018-03-18T01:11:11.373Z,4.77
2018-03-18T01:13:38.817Z,5.07
2018-03-18T01:16:06.261Z,4.57
2018-03-18T01:18:33.714Z,4.33
2018-03-18T01:21:01.174Z,4.37
2018-03-18T01:23:33.393Z,4.30
2018-03-18T01:26:00.842Z,4.23
2018-03-18T01:28:28.306Z,4.60
2018-03-18T01:30:55.767Z,4.80
2018-03-18T01:33:23.233Z,4.63
2018-03-18T01:35:50.690Z,5.00
2018-03-18T01:38:18.143Z,4.60
2018-03-18T01:40:45.593Z,4.60
2018-03-18T01:43:13.042Z,5.27
2018-03-18T01:45:40.510Z,4.43
2018-03-18T01:48:07.977Z,4.43
2018-03-18T01:50:35.440Z,4.57
2018-03-18T01:53:14.625Z,4.23
2018-03-18T01:55:42.077Z,5.33
2018-03-18T01:58:10.282Z,4.33
2018-03-18T02:00:37.729Z,4.83
2018-03-18T02:03:05.200Z,5.40
2018-03-18T02:05:32.646Z,4.80
2018-03-18T02:08:00.121Z,5.10
2018-03-18T02:10:27.577Z,4.50
2018-03-18T02:12:55.017Z,4.87
2018-03-18T02:15:22.479Z,4.07
2018-03-18T02:17:49.934Z,4.50
2018-03-18T02:20:17.422Z,4.67
2018-03-18T02:22:45.613Z,4.60
2018-03-18T02:25:13.061Z,4.30
2018-03-18T02:27:40.519Z,4.10
2018-03-18T02:30:07.981Z,4.10
2018-03-18T02:32:35.452Z,4.97
2018-03-18T02:35:03.712Z,4.87
2018-03-18T02:37:31.166Z,5.10
2018-03-18T02:39:58.642Z,4.80
2018-03-18T02:42:26.861Z,4.87
2018-03-18T02:44:54.317Z,4.63
2018-03-18T02:47:21.784Z,5.27
2018-03-18T02:49:49.238Z,4.80
2018-03-18T02:52:16.693Z,4.60
2018-03-18T02:54:45.362Z,5.40
2018-03-18T02:57:12.802Z,5.20
2018-03-18T02:59:40.263Z,5.27
2018-03-18T03:02:08.497Z,5.37
2018-03-18T03:04:35.962Z,5.23
2018-03-18T03:07:03.417Z,5.33
2018-03-18T03:09:30.887Z,5.40
2018-03-18T03:11:58.339Z,5.27
2018-03-18T03:14:25.790Z,5.53
2018-03-18T03:16:53.267Z,5.20
2018-03-18T03:19:20.725Z,5.30
2018-03-18T03:21:48.186Z,5.40
2018-03-18T03:24:15.665Z,5.43
2018-03-18T03:26:43.101Z,5.43
2018-03-18T03:29:10.553Z,5.20
2018-03-18T03:31:38.774Z,5.50
2018-03-18T03:34:06.228Z,5.20
2018-03-18T03:36:33.685Z,5.00
2018-03-18T03:39:01.136Z,5.03
2018-03-18T03:41:28.583Z,5.80
2018-03-18T03:43:56.018Z,4.83
2018-03-18T03:46:24.232Z,5.37
2018-03-18T03:48:51.704Z,5.63
2018-03-18T03:51:19.453Z,5.90
2018-03-18T03:53:46.881Z,5.97
2018-03-18T03:56:15.106Z,5.50
2018-03-18T03:58:42.562Z,5.73
2018-03-18T04:01:10.058Z,6.13
2018-03-18T04:03:37.498Z,5.60
2018-03-18T04:06:04.954Z,5.17
2018-03-18T04:08:32.406Z,5.60
2018-03-18T04:10:59.865Z,6.20
2018-03-18T04:13:27.328Z,6.00
2018-03-18T04:15:54.777Z,5.63
2018-03-18T04:18:22.222Z,6.00
2018-03-18T04:20:49.671Z,5.70
2018-03-18T04:23:17.119Z,6.43
2018-03-18T04:25:44.567Z,5.97
2018-03-18T04:28:12.005Z,5.80
2018-03-18T04:30:40.217Z,6.07
2018-03-18T04:33:07.686Z,6.30
2018-03-18T04:35:35.155Z,6.03
2018-03-18T04:38:03.358Z,6.50
2018-03-18T04:40:30.797Z,5.40
2018-03-18T04:42:58.254Z,6.40
2018-03-18T04:45:25.697Z,5.53
2018-03-18T04:47:53.158Z,5.93
2018-03-18T04:50:20.597Z,6.83
2018-03-18T04:52:48.048Z,6.10
2018-03-18T04:55:15.490Z,6.40
2018-03-18T04:57:42.964Z,6.53
2018-03-18T05:00:10.423Z,6.77
2018-03-18T05:02:37.873Z,6.80
2018-03-18T05:05:05.328Z,6.80
2018-03-18T05:07:32.796Z,6.43
2018-03-18T05:10:00.250Z,6.20
2018-03-18T05:12:27.718Z,6.50
2018-03-18T05:14:55.178Z,6.00
2018-03-18T05:17:22.648Z,6.40
2018-03-18T05:19:50.099Z,6.30
2018-03-18T05:22:17.557Z,6.37
2018-03-18T05:24:45.014Z,6.27
2018-03-18T05:27:12.485Z,6.77
2018-03-18T05:29:39.941Z,6.60
2018-03-18T05:32:07.391Z,6.03
2018-03-18T05:34:34.846Z,6.57
2018-03-18T05:37:02.354Z,6.60
2018-03-18T05:39:29.758Z,6.83
2018-03-18T05:41:57.224Z,6.60
2018-03-18T05:44:24.673Z,6.87
2018-03-18T05:46:52.138Z,6.70
2018-03-18T05:49:19.582Z,6.63
2018-03-18T05:51:47.030Z,6.33
2018-03-18T05:54:14.502Z,6.40
2018-03-18T05:56:41.980Z,6.83
2018-03-18T05:59:09.478Z,6.87
2018-03-18T06:01:36.934Z,6.63
2018-03-18T06:04:04.393Z,6.53
2018-03-18T06:06:31.834Z,6.60
2018-03-18T06:09:00.076Z,6.50
2018-03-18T06:11:27.518Z,6.97
2018-03-18T06:13:54.982Z,6.60
2018-03-18T06:16:22.446Z,6.50
2018-03-18T06:18:49.918Z,6.47
2018-03-18T06:21:17.365Z,6.20
2018-03-18T06:23:44.817Z,6.90
2018-03-18T06:26:12.266Z,7.00
2018-03-18T06:28:39.734Z,6.60
2018-03-18T06:31:07.189Z,6.77
2018-03-18T06:33:34.649Z,6.53
2018-03-18T06:36:02.088Z,6.30
2018-03-18T06:38:29.531Z,6.40
2018-03-18T06:40:56.993Z,6.93
2018-03-18T06:43:24.450Z,6.47
2018-03-18T06:45:51.907Z,6.20
2018-03-18T06:48:19.379Z,6.67
2018-03-18T06:50:46.818Z,6.17
2018-03-18T06:53:14.273Z,6.50
2018-03-18T06:55:41.727Z,6.20
2018-03-18T06:58:09.187Z,6.53
2018-03-18T07:00:36.674Z,6.60
2018-03-18T07:03:04.125Z,5.90
2018-03-18T07:05:32.341Z,5.47
2018-03-18T07:08:00.561Z,6.10
2018-03-18T07:10:28.002Z,6.30
2018-03-18T07:12:55.456Z,5.30
2018-03-18T07:15:22.921Z,6.13
2018-03-18T07:17:50.362Z,5.97
2018-03-18T07:20:17.826Z,6.20
2018-03-18T07:22:45.286Z,5.80
2018-03-18T07:25:12.733Z,6.13
2018-03-18T07:27:40.173Z,5.80
2018-03-18T07:30:08.402Z,5.90
2018-03-18T07:32:35.845Z,6.47
2018-03-18T07:35:03.304Z,5.63
2018-03-18T07:37:30.757Z,6.07
2018-03-18T07:39:58.213Z,5.63
2018-03-18T07:42:25.671Z,5.23
2018-03-18T07:44:53.128Z,5.60
2018-03-18T07:47:20.570Z,5.70
2018-03-18T07:49:48.018Z,5.87
2018-03-18T07:52:16.238Z,6.23
2018-03-18T07:54:43.693Z,5.50
2018-03-18T07:57:11.151Z,5.20
2018-03-18T07:59:38.608Z,5.67
2018-03-18T08:02:06.065Z,6.13
2018-03-18T08:04:33.529Z,5.37
2018-03-18T08:07:01.002Z,5.27
2018-03-18T08:09:28.449Z,5.23
2018-03-18T08:11:55.909Z,5.70
2018-03-18T08:14:23.348Z,6.00
2018-03-18T08:16:51.571Z,5.47
2018-03-18T08:19:19.787Z,6.50
2018-03-18T08:21:47.257Z,5.33
2018-03-18T08:24:14.707Z,5.97
2018-03-18T08:26:42.173Z,5.80
2018-03-18T08:29:09.639Z,5.87
2018-03-18T08:31:37.089Z,5.70
2018-03-18T08:34:04.545Z,4.90
2018-03-18T08:36:32.021Z,6.10
2018-03-18T08:38:59.462Z,5.67
2018-03-18T08:41:26.974Z,5.03
2018-03-18T08:43:54.386Z,5.40
2018-03-18T08:46:21.860Z,4.80
2018-03-18T08:48:49.317Z,5.50
2018-03-18T08:51:16.768Z,5.33
2018-03-18T08:53:44.233Z,5.37
2018-03-18T08:56:11.722Z,5.33
2018-03-18T08:58:39.188Z,5.17
2018-03-18T09:01:06.622Z,5.10
2018-03-18T09:03:34.070Z,5.50
2018-03-18T09:06:02.313Z,5.10
2018-03-18T09:08:29.777Z,5.40
2018-03-18T09:10:57.234Z,5.33
2018-03-18T09:13:25.458Z,5.80
2018-03-18T09:15:52.902Z,5.20
2018-03-18T09:18:21.135Z,5.60
2018-03-18T09:20:48.585Z,5.07
2018-03-18T09:23:16.045Z,5.00
2018-03-18T09:25:43.501Z,4.87
2018-03-18T09:28:10.970Z,5.20
2018-03-18T09:30:38.427Z,5.00
2018-03-18T09:33:05.906Z,5.40
2018-03-18T09:35:33.345Z,5.23
2018-03-18T09:38:00.816Z,5.03
2018-03-18T09:40:28.268Z,4.70
2018-03-18T09:42:56.542Z,5.23
2018-03-18T09:45:23.997Z,5.20
2018-03-18T09:47:51.458Z,5.47
2018-03-18T09:50:18.913Z,4.87
2018-03-18T09:52:46.371Z,5.20
2018-03-18T09:55:13.813Z,5.13
2018-03-18T09:57:41.278Z,4.90
2018-03-18T10:00:08.790Z,4.77
2018-03-18T10:02:36.283Z,4.93
2018-03-18T10:05:03.700Z,5.37
2018-03-18T10:07:31.159Z,4.87
2018-03-18T10:09:59.382Z,4.27
2018-03-18T10:12:27.678Z,4.90
2018-03-18T10:14:55.147Z,5.00
2018-03-18T10:17:22.682Z,4.10
2018-03-18T10:19:50.149Z,4.23
2018-03-18T10:22:17.611Z,4.03
2018-03-18T10:24:45.067Z,4.70
2018-03-18T10:27:12.557Z,4.57
2018-03-18T10:29:40.011Z,4.50
2018-03-18T10:32:07.526Z,4.20
2018-03-18T10:34:34.982Z,4.37
2018-03-18T10:37:02.438Z,4.17
2018-03-18T10:39:29.894Z,4.47
2018-03-18T10:41:57.387Z,4.67
2018-03-18T10:44:24.806Z,4.13
2018-03-18T10:46:52.289Z,4.00
2018-03-18T10:49:19.746Z,4.50
2018-03-18T10:51:47.198Z,4.10
2018-03-18T10:54:14.662Z,3.67
2018-03-18T10:56:42.127Z,3.80
2018-03-18T10:59:10.366Z,4.33
2018-03-18T11:01:43.473Z,4.30
2018-03-18T11:04:17.519Z,4.47
2018-03-18T11:06:45.746Z,4.30
2018-03-18T11:09:13.969Z,3.90
2018-03-18T11:11:41.437Z,3.83
2018-03-18T11:14:08.915Z,3.47
2018-03-18T11:16:36.379Z,3.90
2018-03-18T11:19:03.841Z,3.07
2018-03-18T11:21:31.309Z,2.93
2018-03-18T11:23:59.524Z,3.00
2018-03-18T11:26:27.745Z,2.70
2018-03-18T11:28:55.203Z,2.37
2018-03-18T11:31:22.672Z,2.73
2018-03-18T11:33:50.130Z,2.57
2018-03-18T11:36:17.593Z,2.70
2018-03-18T11:38:45.058Z,2.97
2018-03-18T11:41:12.515Z,3.30
2018-03-18T11:43:39.962Z,3.57
2018-03-18T11:46:07.423Z,3.13
2018-03-18T11:48:34.873Z,3.53
2018-03-18T11:51:03.098Z,3.17
2018-03-18T11:53:30.593Z,3.77
2018-03-18T11:55:59.237Z,3.00
2018-03-18T11:58:26.638Z,3.27
2018-03-18T12:00:54.102Z,3.10
2018-03-18T12:03:21.554Z,3.17
2018-03-18T12:05:49.017Z,3.13
2018-03-18T12:08:28.213Z,3.37
2018-03-18T12:10:55.688Z,3.43
2018-03-18T12:13:23.153Z,3.57
2018-03-18T12:15:50.614Z,3.63
2018-03-18T12:18:18.089Z,3.50
2018-03-18T12:20:45.565Z,3.30
2018-03-18T12:23:13.154Z,3.73
2018-03-18T12:25:41.389Z,3.30
2018-03-18T12:28:08.835Z,3.13
2018-03-18T12:30:38.223Z,3.43
2018-03-18T12:33:05.681Z,3.67
2018-03-18T12:35:33.147Z,2.70
2018-03-18T12:38:00.591Z,2.80
2018-03-18T12:40:29.846Z,3.23
2018-03-18T12:43:10.070Z,3.40
2018-03-18T12:45:37.549Z,3.30
2018-03-18T12:48:04.999Z,2.80
2018-03-18T12:50:32.441Z,3.10
2018-03-18T12:52:59.918Z,3.40
2018-03-18T12:55:27.370Z,3.00
2018-03-18T12:57:54.821Z,3.40
2018-03-18T13:00:22.265Z,3.00
2018-03-18T13:02:49.722Z,3.00
2018-03-18T13:05:17.231Z,2.97
2018-03-18T13:07:44.636Z,3.20
2018-03-18T13:10:12.082Z,3.10
2018-03-18T13:12:39.546Z,3.50
2018-03-18T13:15:06.986Z,2.93
2018-03-18T13:17:34.450Z,3.47
2018-03-18T13:20:01.905Z,3.03
2018-03-18T13:22:29.360Z,3.13
2018-03-18T13:24:56.833Z,3.37
2018-03-18T13:27:24.294Z,3.17
2018-03-18T13:29:51.732Z,3.10
2018-03-18T13:32:19.192Z,3.17
2018-03-18T13:34:46.667Z,3.30
2018-03-18T13:37:14.125Z,3.27
2018-03-18T13:39:42.445Z,3.53
2018-03-18T13:42:10.675Z,3.20
2018-03-18T13:44:38.126Z,3.03
2018-03-18T13:47:05.602Z,3.10
2018-03-18T13:49:33.062Z,3.50
2018-03-18T13:52:00.506Z,3.63
2018-03-18T13:54:28.059Z,3.60
2018-03-18T13:56:55.495Z,3.40
2018-03-18T13:59:22.977Z,3.30
2018-03-18T14:01:50.442Z,3.67
2018-03-18T14:04:17.893Z,3.30
2018-03-18T14:06:45.373Z,3.30
2018-03-18T14:09:14.528Z,3.20
2018-03-18T14:11:41.989Z,3.03
2018-03-18T14:14:09.446Z,3.50
2018-03-18T14:16:36.902Z,3.30
2018-03-18T14:19:04.388Z,3.47
2018-03-18T14:21:31.850Z,3.70
2018-03-18T14:23:59.363Z,3.20
2018-03-18T14:26:26.847Z,3.13
2018-03-18T14:28:54.301Z,3.10
2018-03-18T14:31:23.682Z,3.30
2018-03-18T14:33:51.137Z,3.27
2018-03-18T14:36:19.387Z,3.30
2018-03-18T14:38:47.622Z,3.50
2018-03-18T14:41:15.069Z,3.40
2018-03-18T14:43:42.524Z,3.80
2018-03-18T14:46:09.985Z,3.60
2018-03-18T14:48:37.442Z,3.73
2018-03-18T14:51:04.898Z,3.70
2018-03-18T14:53:32.358Z,4.03
2018-03-18T14:55:59.813Z,4.30
2018-03-18T14:58:27.317Z,4.37
2018-03-18T15:00:54.839Z,5.13
2018-03-18T15:03:22.297Z,4.63
2018-03-18T15:05:49.765Z,5.17
2018-03-18T15:08:17.218Z,5.30
2018-03-18T15:10:44.673Z,5.10
2018-03-18T15:13:12.904Z,5.50
2018-03-18T15:15:40.366Z,5.53
2018-03-18T15:18:09.126Z,5.60
2018-03-18T15:20:36.718Z,5.97
2018-03-18T15:23:04.946Z,5.90
2018-03-18T15:25:32.390Z,5.90
2018-03-18T15:28:00.008Z,5.73
2018-03-18T15:30:28.226Z,5.53
2018-03-18T15:32:55.679Z,6.03
2018-03-18T15:35:23.136Z,6.00
2018-03-18T15:37:51.367Z,6.40
2018-03-18T15:40:18.821Z,6.23
2018-03-18T15:42:47.038Z,6.33
2018-03-18T15:45:14.562Z,6.00
2018-03-18T15:47:42.198Z,5.70
2018-03-18T15:50:09.660Z,6.43
2018-03-18T15:52:37.111Z,5.97
2018-03-18T15:55:04.574Z,5.80
2018-03-18T15:57:32.025Z,6.27
2018-03-18T15:59:59.478Z,6.00
2018-03-18T16:02:27.038Z,5.50
2018-03-18T16:04:54.734Z,5.97
2018-03-18T16:07:22.188Z,5.50
2018-03-18T16:09:50.413Z,6.30
2018-03-18T16:12:17.888Z,6.10
2018-03-18T16:14:45.405Z,6.00
2018-03-18T16:17:12.846Z,6.20
2018-03-18T16:19:40.370Z,6.10
2018-03-18T16:22:07.832Z,6.17
2018-03-18T16:24:35.301Z,5.73
2018-03-18T16:27:03.517Z,6.70
2018-03-18T16:29:42.870Z,6.23
2018-03-18T16:32:10.312Z,5.70
2018-03-18T16:34:37.758Z,6.03
2018-03-18T16:37:05.226Z,6.10
2018-03-18T16:39:32.700Z,6.57
2018-03-18T16:42:00.186Z,5.97
2018-03-18T16:44:27.638Z,6.20
2018-03-18T16:46:55.217Z,5.93
2018-03-18T16:49:22.610Z,5.97
2018-03-18T16:51:50.066Z,6.10
2018-03-18T16:54:17.914Z,5.63
2018-03-18T16:56:46.156Z,5.30
2018-03-18T16:59:13.639Z,5.97
2018-03-18T17:01:41.853Z,5.80
2018-03-18T17:04:09.307Z,5.90
2018-03-18T17:06:36.768Z,5.30
2018-03-18T17:09:04.213Z,5.40
2018-03-18T17:11:31.686Z,5.30
2018-03-18T17:13:59.124Z,5.83
2018-03-18T17:16:26.617Z,4.90
2018-03-18T17:18:54.851Z,5.20
2018-03-18T17:21:22.321Z,4.90
2018-03-18T17:23:49.783Z,5.40
2018-03-18T17:26:17.251Z,4.80
2018-03-18T17:28:44.701Z,4.40
2018-03-18T17:31:12.165Z,5.10
2018-03-18T17:33:39.622Z,4.73
2018-03-18T17:36:07.862Z,5.23
2018-03-18T17:38:35.335Z,5.40
2018-03-18T17:41:03.562Z,6.40
2018-03-18T17:43:32.530Z,6.80
2018-03-18T17:49:17.966Z,7.40
2018-03-18T17:51:57.920Z,9.40
2018-03-18T17:54:37.966Z,8.97
2018-03-18T17:57:06.193Z,10.40
2018-03-18T17:59:33.650Z,8.70
2018-03-18T18:02:01.129Z,9.53
2018-03-18T18:04:28.577Z,7.57
2018-03-18T18:06:56.094Z,7.53
2018-03-18T18:09:23.576Z,7.50
2018-03-18T18:11:51.037Z,6.80
2018-03-18T18:14:18.613Z,6.70
2018-03-18T18:16:46.163Z,6.47
2018-03-18T18:19:13.645Z,6.60
2018-03-18T18:21:41.105Z,6.70
2018-03-18T18:24:08.602Z,5.63
2018-03-18T18:26:36.050Z,5.90
2018-03-18T18:29:03.501Z,5.37
2018-03-18T18:31:30.976Z,4.90
2018-03-18T18:33:58.467Z,5.30
2018-03-18T18:36:25.992Z,5.93
2018-03-18T18:38:54.252Z,5.20
2018-03-18T18:41:22.470Z,5.60
2018-03-18T18:43:49.928Z,5.30
2018-03-18T18:46:17.382Z,5.60
2018-03-18T18:48:44.914Z,5.37
2018-03-18T18:51:13.118Z,5.13
2018-03-18T18:53:40.575Z,5.40
2018-03-18T18:56:08.034Z,5.83
2018-03-18T18:58:35.489Z,4.73
2018-03-18T19:01:02.960Z,5.07
2018-03-18T19:03:30.401Z,5.10
2018-03-18T19:05:57.859Z,4.83
2018-03-18T19:08:25.302Z,5.50
2018-03-18T19:10:52.768Z,4.97
2018-03-18T19:13:21.001Z,5.10
2018-03-18T19:15:48.538Z,6.00
2018-03-18T19:18:16.042Z,7.00
2018-03-18T19:20:44.302Z,7.73
2018-03-18T19:23:12.530Z,8.30
2018-03-18T19:25:40.049Z,11.30
2018-03-18T19:28:07.613Z,11.47
2018-03-18T19:30:35.866Z,12.70
2018-03-18T19:33:03.433Z,11.43
2018-03-18T19:35:31.711Z,12.73
2018-03-18T19:37:59.954Z,12.57
2018-03-18T19:40:28.256Z,12.20
2018-03-18T19:42:55.701Z,10.07
2018-03-18T19:45:23.228Z,11.20
2018-03-18T19:47:50.666Z,8.90
2018-03-18T19:50:18.129Z,7.87
2018-03-18T19:52:45.624Z,7.10
2018-03-18T19:55:13.196Z,6.67
2018-03-18T19:57:41.495Z,8.30
2018-03-18T20:00:09.783Z,7.57
2018-03-18T20:02:38.083Z,7.00
2018-03-18T20:05:05.580Z,5.70
2018-03-18T20:07:33.926Z,5.77
2018-03-18T20:10:01.377Z,5.83
2018-03-18T20:12:29.977Z,5.50
2018-03-18T20:14:57.430Z,5.80
2018-03-18T20:17:24.879Z,5.37
2018-03-18T20:19:52.423Z,4.67
2018-03-18T20:22:19.904Z,4.70
2018-03-18T20:24:47.396Z,4.50
2018-03-18T20:27:15.022Z,4.20
2018-03-18T20:29:42.474Z,4.20
2018-03-18T20:32:09.930Z,4.53
2018-03-18T20:34:37.385Z,4.60
2018-03-18T20:37:04.843Z,4.20
2018-03-18T20:39:32.328Z,4.67
2018-03-18T20:41:59.785Z,4.53
2018-03-18T20:44:27.414Z,4.53
2018-03-18T20:46:54.878Z,4.33
2018-03-18T20:49:22.348Z,4.70
2018-03-18T20:51:49.866Z,4.53
2018-03-18T20:54:17.313Z,4.73
2018-03-18T20:56:44.761Z,5.00
2018-03-18T20:59:12.226Z,4.83
2018-03-18T21:01:39.703Z,4.70
2018-03-18T21:04:07.139Z,7.77
2018-03-18T21:06:34.606Z,6.27
2018-03-18T21:09:02.893Z,5.57
2018-03-18T21:11:30.354Z,4.47
2018-03-18T21:13:58.574Z,4.80
2018-03-18T21:16:26.013Z,4.53
2018-03-18T21:18:53.486Z,4.77
2018-03-18T21:21:20.928Z,4.97
2018-03-18T21:23:48.385Z,4.17
2018-03-18T21:26:15.856Z,4.87
2018-03-18T21:28:43.329Z,3.90
2018-03-18T21:31:10.806Z,3.80
2018-03-18T21:33:39.024Z,4.63
2018-03-18T21:36:06.461Z,3.60
2018-03-18T21:38:33.986Z,4.00
2018-03-18T21:41:02.209Z,3.90
2018-03-18T21:43:29.676Z,3.97
2018-03-18T21:45:57.205Z,4.40
2018-03-18T21:48:25.446Z,4.40
2018-03-18T21:50:52.888Z,5.00
2018-03-18T21:53:20.346Z,5.23
2018-03-18T21:55:48.548Z,4.90
2018-03-18T21:58:16.775Z,5.30
2018-03-18T22:00:44.266Z,5.33
2018-03-18T22:03:11.726Z,4.70
2018-03-18T22:05:39.170Z,4.47
2018-03-18T22:08:06.625Z,4.90
2018-03-18T22:10:34.106Z,4.30
2018-03-18T22:13:02.336Z,4.70
2018-03-18T22:15:31.713Z,4.53
2018-03-18T22:17:59.990Z,3.73
2018-03-18T22:20:28.286Z,4.20
2018-03-18T22:22:55.814Z,5.03
2018-03-18T22:25:24.029Z,4.07
2018-03-18T22:27:51.509Z,4.10
2018-03-18T22:30:18.977Z,4.03
2018-03-18T22:32:46.458Z,4.70
2018-03-18T22:35:13.901Z,3.73
2018-03-18T22:37:42.869Z,3.90
2018-03-18T22:40:10.370Z,3.60
2018-03-18T22:42:38.610Z,4.40
2018-03-18T22:45:06.818Z,4.07
2018-03-18T22:47:34.340Z,4.10
2018-03-18T22:50:01.806Z,4.17
2018-03-18T22:52:29.259Z,4.90
2018-03-18T22:54:56.714Z,4.60
2018-03-18T22:57:24.169Z,4.47
2018-03-18T22:59:51.624Z,4.47
2018-03-18T23:02:19.090Z,4.53
2018-03-18T23:04:46.555Z,3.83
2018-03-18T23:07:14.388Z,4.60
2018-03-18T23:09:41.932Z,4.70
2018-03-18T23:12:09.374Z,4.50
2018-03-18T23:14:36.854Z,4.00
2018-03-18T23:17:04.361Z,4.60
2018-03-18T23:19:31.830Z,5.20
2018-03-18T23:21:59.277Z,3.73
2018-03-18T23:24:26.763Z,4.00
2018-03-18T23:26:55.046Z,4.90
2018-03-18T23:29:22.530Z,4.67
2018-03-18T23:31:50.408Z,3.90
2018-03-18T23:34:17.882Z,3.87
2018-03-18T23:36:45.326Z,3.80
2018-03-18T23:39:12.807Z,4.73
2018-03-18T23:41:40.281Z,4.07
2018-03-18T23:44:08.506Z,3.63
2018-03-18T23:46:35.953Z,4.20
2018-03-18T23:49:03.406Z,4.40
2018-03-18T23:51:30.862Z,4.10
2018-03-18T23:53:59.098Z,4.03
2018-03-18T23:56:27.308Z,4.37
2018-03-18T23:58:54.760Z,4.20
